sensor_id;sensor_type;location;lat;lon;timestamp;pressure;altitude;pressure_sealevel;temperature;humidity
68889;BME280;55930;47.412;8.790;2023-04-09T00:03:12;95103.97;;;3.14;100.00
68889;BME280;55930;47.412;8.790;2023-04-09T00:06:32;95093.97;;;3.05;100.00
68889;BME280;55930;47.412;8.790;2023-04-09T00:09:53;95099.09;;;3.16;100.00
68889;BME280;55930;47.412;8.790;2023-04-09T00:13:16;95098.72;;;3.14;100.00
68889;BME280;55930;47.412;8.790;2023-04-09T00:16:37;95098.84;;;3.06;100.00
68889;BME280;55930;47.412;8.790;2023-04-09T00:19:57;95098.44;;;3.08;100.00
68889;BME280;55930;47.412;8.790;2023-04-09T00:23:18;95092.50;;;3.04;100.00
68889;BME280;55930;47.412;8.790;2023-04-09T00:26:39;95094.72;;;3.05;100.00
68889;BME280;55930;47.412;8.790;2023-04-09T00:30:00;95089.72;;;2.88;100.00
68889;BME280;55930;47.412;8.790;2023-04-09T00:33:20;95082.75;;;3.04;100.00
68889;BME280;55930;47.412;8.790;2023-04-09T00:36:41;95079.16;;;3.22;100.00
68889;BME280;55930;47.412;8.790;2023-04-09T00:40:01;95078.72;;;3.27;100.00
68889;BME280;55930;47.412;8.790;2023-04-09T00:43:22;95078.25;;;3.32;100.00
68889;BME280;55930;47.412;8.790;2023-04-09T00:46:42;95081.59;;;3.32;100.00
68889;BME280;55930;47.412;8.790;2023-04-09T00:50:03;95085.25;;;3.38;100.00
68889;BME280;55930;47.412;8.790;2023-04-09T00:53:24;95083.50;;;3.32;100.00
68889;BME280;55930;47.412;8.790;2023-04-09T00:56:45;95087.63;;;3.29;100.00
68889;BME280;55930;47.412;8.790;2023-04-09T01:00:06;95080.75;;;3.39;100.00
68889;BME280;55930;47.412;8.790;2023-04-09T01:03:29;95079.53;;;3.43;100.00
68889;BME280;55930;47.412;8.790;2023-04-09T01:07:19;95079.47;;;3.51;100.00
68889;BME280;55930;47.412;8.790;2023-04-09T01:10:49;95075.75;;;3.48;100.00
68889;BME280;55930;47.412;8.790;2023-04-09T01:14:39;95074.88;;;3.55;100.00
68889;BME280;55930;47.412;8.790;2023-04-09T01:18:08;95075.34;;;3.50;100.00
68889;BME280;55930;47.412;8.790;2023-04-09T01:21:33;95067.75;;;3.55;100.00
68889;BME280;55930;47.412;8.790;2023-04-09T01:29:04;95060.28;;;3.54;100.00
68889;BME280;55930;47.412;8.790;2023-04-09T01:32:26;95058.53;;;3.47;100.00
68889;BME280;55930;47.412;8.790;2023-04-09T01:35:48;95057.75;;;3.50;100.00
68889;BME280;55930;47.412;8.790;2023-04-09T01:39:09;95055.94;;;3.43;100.00
68889;BME280;55930;47.412;8.790;2023-04-09T01:42:32;95056.06;;;3.36;100.00
68889;BME280;55930;47.412;8.790;2023-04-09T01:45:53;95061.63;;;3.42;100.00
68889;BME280;55930;47.412;8.790;2023-04-09T01:49:14;95061.72;;;3.35;100.00
68889;BME280;55930;47.412;8.790;2023-04-09T01:52:35;95058.06;;;3.29;100.00
68889;BME280;55930;47.412;8.790;2023-04-09T01:55:58;95057.19;;;3.35;100.00
68889;BME280;55930;47.412;8.790;2023-04-09T01:59:18;95064.63;;;3.40;100.00
68889;BME280;55930;47.412;8.790;2023-04-09T02:06:40;95070.22;;;3.42;100.00
68889;BME280;55930;47.412;8.790;2023-04-09T02:10:05;95070.09;;;3.50;100.00
68889;BME280;55930;47.412;8.790;2023-04-09T02:13:28;95063.19;;;3.59;100.00
68889;BME280;55930;47.412;8.790;2023-04-09T02:16:50;95069.63;;;3.55;100.00
68889;BME280;55930;47.412;8.790;2023-04-09T02:20:10;95063.25;;;3.56;100.00
68889;BME280;55930;47.412;8.790;2023-04-09T02:23:31;95061.38;;;3.56;100.00
68889;BME280;55930;47.412;8.790;2023-04-09T02:26:52;95059.50;;;3.57;100.00
68889;BME280;55930;47.412;8.790;2023-04-09T02:30:13;95053.56;;;3.53;100.00
68889;BME280;55930;47.412;8.790;2023-04-09T02:33:33;95046.44;;;3.53;100.00
68889;BME280;55930;47.412;8.790;2023-04-09T02:36:53;95057.94;;;3.59;100.00
68889;BME280;55930;47.412;8.790;2023-04-09T02:40:14;95052.16;;;3.48;100.00
68889;BME280;55930;47.412;8.790;2023-04-09T02:43:37;95051.75;;;3.50;100.00
68889;BME280;55930;47.412;8.790;2023-04-09T02:46:57;95050.44;;;3.38;100.00
68889;BME280;55930;47.412;8.790;2023-04-09T02:50:18;95048.16;;;3.40;100.00
68889;BME280;55930;47.412;8.790;2023-04-09T02:53:38;95050.50;;;3.34;100.00
68889;BME280;55930;47.412;8.790;2023-04-09T02:57:00;95058.81;;;3.29;100.00
68889;BME280;55930;47.412;8.790;2023-04-09T03:00:20;95049.16;;;3.23;100.00
68889;BME280;55930;47.412;8.790;2023-04-09T03:03:41;95050.88;;;3.10;100.00
68889;BME280;55930;47.412;8.790;2023-04-09T03:07:04;95041.69;;;2.98;100.00
68889;BME280;55930;47.412;8.790;2023-04-09T03:10:25;95046.28;;;2.90;100.00
68889;BME280;55930;47.412;8.790;2023-04-09T03:13:45;95041.34;;;2.69;100.00
68889;BME280;55930;47.412;8.790;2023-04-09T03:17:08;95042.25;;;2.86;100.00
68889;BME280;55930;47.412;8.790;2023-04-09T03:20:28;95038.72;;;2.69;100.00
68889;BME280;55930;47.412;8.790;2023-04-09T03:23:49;95035.00;;;2.66;100.00
68889;BME280;55930;47.412;8.790;2023-04-09T03:27:09;95038.88;;;2.58;100.00
68889;BME280;55930;47.412;8.790;2023-04-09T03:30:29;95035.69;;;2.44;100.00
68889;BME280;55930;47.412;8.790;2023-04-09T03:33:50;95039.50;;;2.39;100.00
68889;BME280;55930;47.412;8.790;2023-04-09T03:37:10;95031.19;;;2.44;100.00
68889;BME280;55930;47.412;8.790;2023-04-09T03:40:31;95027.22;;;2.33;100.00
68889;BME280;55930;47.412;8.790;2023-04-09T03:43:52;95037.97;;;2.42;100.00
68889;BME280;55930;47.412;8.790;2023-04-09T03:47:13;95034.97;;;2.40;100.00
68889;BME280;55930;47.412;8.790;2023-04-09T03:50:37;95034.16;;;2.46;100.00
68889;BME280;55930;47.412;8.790;2023-04-09T03:53:58;95034.16;;;2.46;100.00
68889;BME280;55930;47.412;8.790;2023-04-09T03:57:19;95032.06;;;2.34;100.00
68889;BME280;55930;47.412;8.790;2023-04-09T04:00:39;95034.59;;;2.41;100.00
68889;BME280;55930;47.412;8.790;2023-04-09T04:04:00;95031.31;;;2.34;100.00
68889;BME280;55930;47.412;8.790;2023-04-09T04:07:20;95033.00;;;2.20;100.00
68889;BME280;55930;47.412;8.790;2023-04-09T04:10:41;95031.50;;;2.19;100.00
68889;BME280;55930;47.412;8.790;2023-04-09T04:14:01;95031.28;;;2.07;100.00
68889;BME280;55930;47.412;8.790;2023-04-09T04:17:21;95035.59;;;1.90;100.00
68889;BME280;55930;47.412;8.790;2023-04-09T04:20:42;95036.31;;;1.90;100.00
68889;BME280;55930;47.412;8.790;2023-04-09T04:24:02;95039.69;;;1.91;100.00
68889;BME280;55930;47.412;8.790;2023-04-09T04:27:23;95047.03;;;2.00;100.00
68889;BME280;55930;47.412;8.790;2023-04-09T04:30:43;95047.22;;;2.16;100.00
68889;BME280;55930;47.412;8.790;2023-04-09T04:34:05;95046.44;;;2.22;100.00
68889;BME280;55930;47.412;8.790;2023-04-09T04:37:25;95043.53;;;2.44;100.00
68889;BME280;55930;47.412;8.790;2023-04-09T04:40:47;95052.50;;;2.46;100.00
68889;BME280;55930;47.412;8.790;2023-04-09T04:44:07;95053.25;;;2.47;100.00
68889;BME280;55930;47.412;8.790;2023-04-09T04:47:28;95050.22;;;2.48;100.00
68889;BME280;55930;47.412;8.790;2023-04-09T04:50:59;95054.03;;;2.44;100.00
68889;BME280;55930;47.412;8.790;2023-04-09T04:54:21;95048.81;;;2.40;100.00
68889;BME280;55930;47.412;8.790;2023-04-09T04:57:41;95063.00;;;2.43;100.00
68889;BME280;55930;47.412;8.790;2023-04-09T05:01:02;95060.69;;;2.48;100.00
68889;BME280;55930;47.412;8.790;2023-04-09T05:04:22;95063.94;;;2.56;100.00
68889;BME280;55930;47.412;8.790;2023-04-09T05:07:43;95062.03;;;2.60;100.00
68889;BME280;55930;47.412;8.790;2023-04-09T05:11:09;95061.09;;;2.74;100.00
68889;BME280;55930;47.412;8.790;2023-04-09T05:14:30;95066.25;;;2.81;100.00
68889;BME280;55930;47.412;8.790;2023-04-09T05:17:50;95065.50;;;2.80;100.00
68889;BME280;55930;47.412;8.790;2023-04-09T05:21:11;95067.78;;;2.78;100.00
68889;BME280;55930;47.412;8.790;2023-04-09T05:24:31;95068.44;;;2.86;100.00
68889;BME280;55930;47.412;8.790;2023-04-09T05:27:52;95066.59;;;3.10;100.00
68889;BME280;55930;47.412;8.790;2023-04-09T05:31:12;95065.13;;;3.08;100.00
68889;BME280;55930;47.412;8.790;2023-04-09T05:34:34;95072.41;;;3.21;100.00
68889;BME280;55930;47.412;8.790;2023-04-09T05:37:55;95063.81;;;3.20;100.00
68889;BME280;55930;47.412;8.790;2023-04-09T05:41:16;95059.53;;;3.30;100.00
68889;BME280;55930;47.412;8.790;2023-04-09T05:44:36;95062.28;;;3.46;100.00
68889;BME280;55930;47.412;8.790;2023-04-09T05:47:56;95055.44;;;3.52;100.00
68889;BME280;55930;47.412;8.790;2023-04-09T05:51:17;95057.41;;;3.68;100.00
68889;BME280;55930;47.412;8.790;2023-04-09T05:54:37;95063.22;;;3.79;100.00
68889;BME280;55930;47.412;8.790;2023-04-09T05:57:59;95064.59;;;3.87;100.00
68889;BME280;55930;47.412;8.790;2023-04-09T06:01:21;95062.72;;;4.07;100.00
68889;BME280;55930;47.412;8.790;2023-04-09T06:04:41;95063.41;;;4.11;100.00
68889;BME280;55930;47.412;8.790;2023-04-09T06:08:04;95065.41;;;4.43;100.00
68889;BME280;55930;47.412;8.790;2023-04-09T06:11:25;95071.47;;;4.60;100.00
68889;BME280;55930;47.412;8.790;2023-04-09T06:14:47;95070.63;;;4.63;100.00
68889;BME280;55930;47.412;8.790;2023-04-09T06:18:07;95070.34;;;4.77;100.00
68889;BME280;55930;47.412;8.790;2023-04-09T06:21:28;95076.41;;;4.74;100.00
68889;BME280;55930;47.412;8.790;2023-04-09T06:24:50;95076.25;;;4.26;100.00
68889;BME280;55930;47.412;8.790;2023-04-09T06:28:11;95074.72;;;4.28;100.00
68889;BME280;55930;47.412;8.790;2023-04-09T06:31:31;95084.16;;;4.81;100.00
68889;BME280;55930;47.412;8.790;2023-04-09T06:34:52;95075.31;;;4.91;100.00
68889;BME280;55930;47.412;8.790;2023-04-09T06:38:12;95072.59;;;4.59;100.00
68889;BME280;55930;47.412;8.790;2023-04-09T06:41:35;95074.16;;;4.17;100.00
68889;BME280;55930;47.412;8.790;2023-04-09T06:44:55;95072.34;;;4.89;100.00
68889;BME280;55930;47.412;8.790;2023-04-09T06:48:16;95070.50;;;4.70;100.00
68889;BME280;55930;47.412;8.790;2023-04-09T06:51:36;95071.16;;;5.10;100.00
68889;BME280;55930;47.412;8.790;2023-04-09T06:54:59;95075.97;;;5.44;100.00
68889;BME280;55930;47.412;8.790;2023-04-09T06:58:22;95082.72;;;5.29;100.00
68889;BME280;55930;47.412;8.790;2023-04-09T07:01:43;95090.88;;;5.34;100.00
68889;BME280;55930;47.412;8.790;2023-04-09T07:05:04;95083.31;;;5.36;100.00
68889;BME280;55930;47.412;8.790;2023-04-09T07:08:25;95075.00;;;5.54;100.00
68889;BME280;55930;47.412;8.790;2023-04-09T07:11:45;95070.31;;;6.07;100.00
68889;BME280;55930;47.412;8.790;2023-04-09T07:15:06;95074.56;;;6.17;100.00
68889;BME280;55930;47.412;8.790;2023-04-09T07:18:29;95073.84;;;6.17;100.00
68889;BME280;55930;47.412;8.790;2023-04-09T07:21:50;95081.03;;;6.00;100.00
68889;BME280;55930;47.412;8.790;2023-04-09T07:25:14;95076.16;;;6.56;100.00
68889;BME280;55930;47.412;8.790;2023-04-09T07:28:34;95080.09;;;6.77;99.64
68889;BME280;55930;47.412;8.790;2023-04-09T07:31:54;95078.09;;;7.19;97.39
68889;BME280;55930;47.412;8.790;2023-04-09T07:35:15;95082.19;;;7.58;95.49
68889;BME280;55930;47.412;8.790;2023-04-09T07:38:35;95081.16;;;7.90;93.60
68889;BME280;55930;47.412;8.790;2023-04-09T07:41:56;95076.63;;;7.18;92.76
68889;BME280;55930;47.412;8.790;2023-04-09T07:45:17;95077.66;;;6.95;94.32
68889;BME280;55930;47.412;8.790;2023-04-09T07:48:37;95079.09;;;7.59;91.68
68889;BME280;55930;47.412;8.790;2023-04-09T07:51:58;95084.19;;;10.14;76.16
68889;BME280;55930;47.412;8.790;2023-04-09T07:55:19;95082.75;;;11.90;73.65
68889;BME280;55930;47.412;8.790;2023-04-09T07:58:40;95081.91;;;12.61;69.63
68889;BME280;55930;47.412;8.790;2023-04-09T08:02:00;95072.19;;;11.81;69.88
68889;BME280;55930;47.412;8.790;2023-04-09T08:05:21;95076.59;;;8.99;82.72
68889;BME280;55930;47.412;8.790;2023-04-09T08:08:42;95088.25;;;9.11;83.67
68889;BME280;55930;47.412;8.790;2023-04-09T08:12:05;95080.34;;;10.60;75.90
68889;BME280;55930;47.412;8.790;2023-04-09T08:15:25;95079.50;;;11.38;69.57
68889;BME280;55930;47.412;8.790;2023-04-09T08:18:49;95083.03;;;14.49;59.47
68889;BME280;55930;47.412;8.790;2023-04-09T08:22:09;95087.78;;;15.60;55.95
68889;BME280;55930;47.412;8.790;2023-04-09T08:25:30;95086.94;;;13.53;56.57
68889;BME280;55930;47.412;8.790;2023-04-09T08:28:50;95085.34;;;15.56;55.17
68889;BME280;55930;47.412;8.790;2023-04-09T08:32:11;95087.75;;;16.90;51.40
68889;BME280;55930;47.412;8.790;2023-04-09T08:35:31;95094.56;;;16.74;50.38
68889;BME280;55930;47.412;8.790;2023-04-09T08:38:52;95095.88;;;16.25;50.38
68889;BME280;55930;47.412;8.790;2023-04-09T08:42:14;95093.94;;;16.25;50.55
68889;BME280;55930;47.412;8.790;2023-04-09T08:45:35;95094.59;;;17.07;49.90
68889;BME280;55930;47.412;8.790;2023-04-09T08:48:56;95100.13;;;17.76;48.51
68889;BME280;55930;47.412;8.790;2023-04-09T08:52:16;95100.88;;;17.71;45.84
68889;BME280;55930;47.412;8.790;2023-04-09T08:55:44;95107.97;;;17.30;48.30
68889;BME280;55930;47.412;8.790;2023-04-09T08:59:04;95101.63;;;17.55;46.62
68889;BME280;55930;47.412;8.790;2023-04-09T09:02:25;95116.56;;;15.39;50.71
68889;BME280;55930;47.412;8.790;2023-04-09T09:05:45;95111.56;;;15.95;51.13
68889;BME280;55930;47.412;8.790;2023-04-09T09:09:13;95111.41;;;14.73;52.99
68889;BME280;55930;47.412;8.790;2023-04-09T09:12:39;95113.91;;;15.39;49.43
68889;BME280;55930;47.412;8.790;2023-04-09T09:16:13;95108.91;;;16.71;46.80
68889;BME280;55930;47.412;8.790;2023-04-09T09:19:34;95118.41;;;14.44;51.34
68889;BME280;55930;47.412;8.790;2023-04-09T09:22:55;95114.00;;;17.80;44.36
68889;BME280;55930;47.412;8.790;2023-04-09T09:26:36;95113.50;;;19.63;41.36
68889;BME280;55930;47.412;8.790;2023-04-09T09:29:58;95114.66;;;19.92;40.79
68889;BME280;55930;47.412;8.790;2023-04-09T09:33:18;95109.00;;;19.11;42.39
68889;BME280;55930;47.412;8.790;2023-04-09T09:36:39;95112.97;;;19.64;40.74
68889;BME280;55930;47.412;8.790;2023-04-09T09:39:59;95112.47;;;18.07;42.15
68889;BME280;55930;47.412;8.790;2023-04-09T09:43:20;95112.16;;;21.12;38.72
68889;BME280;55930;47.412;8.790;2023-04-09T09:46:41;95114.13;;;19.09;39.95
68889;BME280;55930;47.412;8.790;2023-04-09T09:50:01;95116.88;;;19.33;38.28
68889;BME280;55930;47.412;8.790;2023-04-09T09:53:24;95112.38;;;18.29;38.47
68889;BME280;55930;47.412;8.790;2023-04-09T09:56:50;95108.28;;;20.56;38.43
68889;BME280;55930;47.412;8.790;2023-04-09T10:00:12;95114.22;;;20.68;35.31
68889;BME280;55930;47.412;8.790;2023-04-09T10:03:33;95105.56;;;21.84;35.01
68889;BME280;55930;47.412;8.790;2023-04-09T10:06:56;95110.66;;;20.60;35.76
68889;BME280;55930;47.412;8.790;2023-04-09T10:10:19;95112.38;;;17.27;42.33
68889;BME280;55930;47.412;8.790;2023-04-09T10:13:49;95115.28;;;20.65;37.10
68889;BME280;55930;47.412;8.790;2023-04-09T10:17:12;95114.81;;;22.15;35.17
68889;BME280;55930;47.412;8.790;2023-04-09T10:20:40;95107.66;;;18.47;38.19
68889;BME280;55930;47.412;8.790;2023-04-09T10:24:04;95107.50;;;21.57;34.36
68889;BME280;55930;47.412;8.790;2023-04-09T10:27:25;95108.94;;;20.01;39.09
68889;BME280;55930;47.412;8.790;2023-04-09T10:30:49;95102.41;;;20.15;35.55
68889;BME280;55930;47.412;8.790;2023-04-09T10:34:09;95101.84;;;17.40;40.54
68889;BME280;55930;47.412;8.790;2023-04-09T10:37:30;95098.69;;;17.25;43.19
68889;BME280;55930;47.412;8.790;2023-04-09T10:40:51;95095.59;;;15.63;44.27
68889;BME280;55930;47.412;8.790;2023-04-09T10:44:19;95089.72;;;17.06;44.13
68889;BME280;55930;47.412;8.790;2023-04-09T10:47:41;95088.47;;;16.96;42.33
68889;BME280;55930;47.412;8.790;2023-04-09T10:51:02;95092.81;;;17.49;41.89
68889;BME280;55930;47.412;8.790;2023-04-09T10:57:52;95086.56;;;22.03;35.81
68889;BME280;55930;47.412;8.790;2023-04-09T11:01:20;95081.16;;;22.63;32.87
68889;BME280;55930;47.412;8.790;2023-04-09T11:08:20;95076.78;;;23.36;33.75
68889;BME280;55930;47.412;8.790;2023-04-09T11:11:41;95079.53;;;23.92;31.79
68889;BME280;55930;47.412;8.790;2023-04-09T11:15:02;95075.94;;;18.86;36.63
68889;BME280;55930;47.412;8.790;2023-04-09T11:18:24;95072.44;;;22.10;32.15
68889;BME280;55930;47.412;8.790;2023-04-09T11:21:47;95074.22;;;23.30;32.09
68889;BME280;55930;47.412;8.790;2023-04-09T11:25:08;95067.09;;;25.45;28.22
68889;BME280;55930;47.412;8.790;2023-04-09T11:28:28;95064.16;;;24.23;29.03
68889;BME280;55930;47.412;8.790;2023-04-09T11:31:49;95075.91;;;24.85;28.20
68889;BME280;55930;47.412;8.790;2023-04-09T11:35:14;95071.97;;;25.01;29.19
68889;BME280;55930;47.412;8.790;2023-04-09T11:38:36;95069.31;;;26.72;26.88
68889;BME280;55930;47.412;8.790;2023-04-09T11:41:59;95065.34;;;26.65;26.63
68889;BME280;55930;47.412;8.790;2023-04-09T11:45:24;95064.28;;;24.61;27.11
68889;BME280;55930;47.412;8.790;2023-04-09T11:48:45;95062.03;;;25.64;28.00
68889;BME280;55930;47.412;8.790;2023-04-09T11:52:05;95046.84;;;26.96;24.48
68889;BME280;55930;47.412;8.790;2023-04-09T11:55:28;95048.22;;;27.30;25.56
68889;BME280;55930;47.412;8.790;2023-04-09T11:58:48;95054.72;;;24.75;27.30
68889;BME280;55930;47.412;8.790;2023-04-09T12:02:09;95049.31;;;25.82;26.42
68889;BME280;55930;47.412;8.790;2023-04-09T12:05:32;95047.94;;;22.97;27.74
68889;BME280;55930;47.412;8.790;2023-04-09T12:08:53;95053.56;;;27.20;26.73
68889;BME280;55930;47.412;8.790;2023-04-09T12:12:17;95047.91;;;22.76;28.73
68889;BME280;55930;47.412;8.790;2023-04-09T12:15:40;95041.53;;;21.79;30.98
68889;BME280;55930;47.412;8.790;2023-04-09T12:19:05;95040.06;;;20.93;32.13
68889;BME280;55930;47.412;8.790;2023-04-09T12:22:29;95049.97;;;21.62;33.00
68889;BME280;55930;47.412;8.790;2023-04-09T12:25:49;95053.41;;;24.61;27.83
68889;BME280;55930;47.412;8.790;2023-04-09T12:29:10;95052.88;;;24.55;26.38
68889;BME280;55930;47.412;8.790;2023-04-09T12:32:30;95042.09;;;25.01;25.78
68889;BME280;55930;47.412;8.790;2023-04-09T12:35:55;95035.78;;;23.11;28.18
68889;BME280;55930;47.412;8.790;2023-04-09T12:39:17;95036.53;;;26.15;27.98
68889;BME280;55930;47.412;8.790;2023-04-09T12:42:43;95041.75;;;26.20;25.50
68889;BME280;55930;47.412;8.790;2023-04-09T12:46:04;95042.75;;;23.76;27.92
68889;BME280;55930;47.412;8.790;2023-04-09T12:49:25;95035.44;;;23.35;28.61
68889;BME280;55930;47.412;8.790;2023-04-09T12:52:45;95042.13;;;26.24;25.74
68889;BME280;55930;47.412;8.790;2023-04-09T12:56:06;95039.19;;;23.89;28.84
68889;BME280;55930;47.412;8.790;2023-04-09T12:59:26;95036.81;;;24.65;26.62
68889;BME280;55930;47.412;8.790;2023-04-09T13:02:48;95034.31;;;23.87;27.36
68889;BME280;55930;47.412;8.790;2023-04-09T13:06:08;95030.19;;;26.85;23.85
68889;BME280;55930;47.412;8.790;2023-04-09T13:09:29;95018.44;;;26.75;24.05
68889;BME280;55930;47.412;8.790;2023-04-09T13:12:49;95016.59;;;25.19;25.29
68889;BME280;55930;47.412;8.790;2023-04-09T13:16:10;95007.56;;;27.24;26.03
68889;BME280;55930;47.412;8.790;2023-04-09T13:19:31;95012.25;;;24.93;26.38
68889;BME280;55930;47.412;8.790;2023-04-09T13:22:51;95003.63;;;26.68;24.05
68889;BME280;55930;47.412;8.790;2023-04-09T13:26:12;95018.47;;;23.35;30.81
68889;BME280;55930;47.412;8.790;2023-04-09T13:29:34;95004.66;;;27.99;23.09
68889;BME280;55930;47.412;8.790;2023-04-09T13:32:55;95004.16;;;26.34;24.13
68889;BME280;55930;47.412;8.790;2023-04-09T13:36:15;95002.78;;;26.18;24.69
68889;BME280;55930;47.412;8.790;2023-04-09T13:39:36;94999.03;;;26.46;25.65
68889;BME280;55930;47.412;8.790;2023-04-09T13:42:56;95005.25;;;21.09;30.68
68889;BME280;55930;47.412;8.790;2023-04-09T13:46:16;95002.22;;;19.06;31.80
68889;BME280;55930;47.412;8.790;2023-04-09T13:49:37;94996.38;;;19.26;32.21
68889;BME280;55930;47.412;8.790;2023-04-09T13:52:58;94995.09;;;23.24;28.96
68889;BME280;55930;47.412;8.790;2023-04-09T13:56:21;94983.09;;;25.95;25.12
68889;BME280;55930;47.412;8.790;2023-04-09T13:59:42;94981.97;;;25.50;25.56
68889;BME280;55930;47.412;8.790;2023-04-09T14:03:05;94981.16;;;26.60;24.01
68889;BME280;55930;47.412;8.790;2023-04-09T14:06:28;94975.00;;;27.09;24.31
68889;BME280;55930;47.412;8.790;2023-04-09T14:09:49;94973.78;;;26.53;23.40
68889;BME280;55930;47.412;8.790;2023-04-09T14:13:11;94965.56;;;26.60;23.29
68889;BME280;55930;47.412;8.790;2023-04-09T14:16:32;94969.59;;;25.72;23.39
68889;BME280;55930;47.412;8.790;2023-04-09T14:19:52;94961.69;;;25.59;23.38
68889;BME280;55930;47.412;8.790;2023-04-09T14:23:12;94967.81;;;25.67;23.88
68889;BME280;55930;47.412;8.790;2023-04-09T14:26:33;94970.41;;;24.89;24.03
68889;BME280;55930;47.412;8.790;2023-04-09T14:29:53;94961.94;;;24.11;24.80
68889;BME280;55930;47.412;8.790;2023-04-09T14:33:14;94959.19;;;24.62;25.96
68889;BME280;55930;47.412;8.790;2023-04-09T14:36:37;94962.09;;;24.56;24.92
68889;BME280;55930;47.412;8.790;2023-04-09T14:39:57;94963.34;;;25.24;25.35
68889;BME280;55930;47.412;8.790;2023-04-09T14:43:17;94958.75;;;22.91;27.21
68889;BME280;55930;47.412;8.790;2023-04-09T14:46:38;94959.84;;;19.36;32.67
68889;BME280;55930;47.412;8.790;2023-04-09T14:49:58;94965.66;;;17.85;36.02
68889;BME280;55930;47.412;8.790;2023-04-09T14:53:19;94967.91;;;18.52;36.90
68889;BME280;55930;47.412;8.790;2023-04-09T14:56:40;94966.31;;;20.91;31.77
68889;BME280;55930;47.412;8.790;2023-04-09T15:00:01;94963.47;;;20.19;32.96
68889;BME280;55930;47.412;8.790;2023-04-09T15:03:21;94962.19;;;21.16;30.37
68889;BME280;55930;47.412;8.790;2023-04-09T15:06:45;94971.38;;;22.13;28.83
68889;BME280;55930;47.412;8.790;2023-04-09T15:10:06;94973.13;;;18.39;34.33
68889;BME280;55930;47.412;8.790;2023-04-09T15:13:27;94972.66;;;15.32;39.37
68889;BME280;55930;47.412;8.790;2023-04-09T15:16:49;94966.53;;;17.47;35.78
68889;BME280;55930;47.412;8.790;2023-04-09T15:20:10;94959.03;;;20.22;32.50
68889;BME280;55930;47.412;8.790;2023-04-09T15:23:32;94963.41;;;20.06;30.87
68889;BME280;55930;47.412;8.790;2023-04-09T15:26:54;94960.78;;;17.15;35.02
68889;BME280;55930;47.412;8.790;2023-04-09T15:30:16;94959.56;;;16.16;38.61
68889;BME280;55930;47.412;8.790;2023-04-09T15:33:36;94963.94;;;15.43;40.80
68889;BME280;55930;47.412;8.790;2023-04-09T15:36:57;94957.31;;;15.32;41.68
68889;BME280;55930;47.412;8.790;2023-04-09T15:40:18;94967.66;;;14.71;41.43
68889;BME280;55930;47.412;8.790;2023-04-09T15:43:38;94974.59;;;14.58;42.70
68889;BME280;55930;47.412;8.790;2023-04-09T15:46:59;94961.47;;;14.54;44.32
68889;BME280;55930;47.412;8.790;2023-04-09T15:50:19;94962.53;;;14.10;43.69
68889;BME280;55930;47.412;8.790;2023-04-09T15:53:40;94965.78;;;13.74;42.77
68889;BME280;55930;47.412;8.790;2023-04-09T15:57:00;94954.31;;;14.40;41.80
68889;BME280;55930;47.412;8.790;2023-04-09T16:00:21;94957.22;;;13.64;41.86
68889;BME280;55930;47.412;8.790;2023-04-09T16:03:43;94950.69;;;13.10;43.66
68889;BME280;55930;47.412;8.790;2023-04-09T16:07:09;94957.28;;;13.70;44.56
68889;BME280;55930;47.412;8.790;2023-04-09T16:10:30;94958.28;;;13.52;42.32
68889;BME280;55930;47.412;8.790;2023-04-09T16:13:52;94953.00;;;13.58;43.25
68889;BME280;55930;47.412;8.790;2023-04-09T16:17:15;94958.88;;;13.21;43.88
68889;BME280;55930;47.412;8.790;2023-04-09T16:20:35;94957.81;;;13.13;43.13
68889;BME280;55930;47.412;8.790;2023-04-09T16:23:56;94961.00;;;13.02;44.23
68889;BME280;55930;47.412;8.790;2023-04-09T16:27:16;94973.81;;;12.98;44.15
68889;BME280;55930;47.412;8.790;2023-04-09T16:30:37;94970.69;;;12.85;44.71
68889;BME280;55930;47.412;8.790;2023-04-09T16:33:59;94967.47;;;12.96;44.82
68889;BME280;55930;47.412;8.790;2023-04-09T16:37:20;94970.06;;;12.90;45.27
68889;BME280;55930;47.412;8.790;2023-04-09T16:40:40;94970.38;;;12.48;45.79
68889;BME280;55930;47.412;8.790;2023-04-09T16:44:01;94963.06;;;12.29;45.75
68889;BME280;55930;47.412;8.790;2023-04-09T16:47:21;94961.03;;;12.23;45.07
68889;BME280;55930;47.412;8.790;2023-04-09T16:50:41;94964.22;;;11.98;45.93
68889;BME280;55930;47.412;8.790;2023-04-09T16:54:05;94966.34;;;11.32;48.83
68889;BME280;55930;47.412;8.790;2023-04-09T16:57:26;94966.41;;;11.46;47.69
68889;BME280;55930;47.412;8.790;2023-04-09T17:00:51;94961.84;;;11.62;47.17
68889;BME280;55930;47.412;8.790;2023-04-09T17:04:11;94963.69;;;11.32;48.02
68889;BME280;55930;47.412;8.790;2023-04-09T17:07:32;94966.50;;;11.04;48.12
68889;BME280;55930;47.412;8.790;2023-04-09T17:10:52;94966.84;;;10.97;49.01
68889;BME280;55930;47.412;8.790;2023-04-09T17:14:20;94961.78;;;10.76;49.29
68889;BME280;55930;47.412;8.790;2023-04-09T17:17:41;94954.91;;;10.69;51.22
68889;BME280;55930;47.412;8.790;2023-04-09T17:21:02;94961.16;;;10.48;53.21
68889;BME280;55930;47.412;8.790;2023-04-09T17:24:23;94969.63;;;10.28;51.23
68889;BME280;55930;47.412;8.790;2023-04-09T17:27:44;94959.16;;;10.06;56.36
68889;BME280;55930;47.412;8.790;2023-04-09T17:31:11;94973.03;;;9.83;58.13
68889;BME280;55930;47.412;8.790;2023-04-09T17:34:34;94970.09;;;9.81;56.36
68889;BME280;55930;47.412;8.790;2023-04-09T17:37:55;94971.13;;;9.47;59.56
68889;BME280;55930;47.412;8.790;2023-04-09T17:41:15;94976.53;;;9.25;60.81
68889;BME280;55930;47.412;8.790;2023-04-09T17:44:36;94983.81;;;8.94;63.88
68889;BME280;55930;47.412;8.790;2023-04-09T17:47:57;94979.47;;;8.69;65.05
68889;BME280;55930;47.412;8.790;2023-04-09T17:51:18;94986.00;;;8.55;66.18
68889;BME280;55930;47.412;8.790;2023-04-09T17:54:39;94997.53;;;8.39;67.41
68889;BME280;55930;47.412;8.790;2023-04-09T17:58:03;94991.88;;;8.06;69.35
68889;BME280;55930;47.412;8.790;2023-04-09T18:01:24;94992.88;;;8.00;69.63
68889;BME280;55930;47.412;8.790;2023-04-09T18:04:44;94993.28;;;7.98;69.70